Time;durP1;ratioP1;P1;durP2;ratioP2;P2;SDS_P1;SDS_P2;PMS_P1;PMS_P2;Temp;Humidity;BMP_temperature;BMP_pressure;BME280_temperature;BME280_humidity;BME280_pressure;Samples;Min_cycle;Max_cycle;Signal;HPM_P1;HPM_P2
2023/09/23 00:01:15;;;;;;;5.57;3.60;;;;;;;11.50;100.00;99834.84;5030213;28;20434;-78
2023/09/23 00:03:48;;;;;;;6.82;3.60;;;;;;;11.48;100.00;99825.38;5028290;28;20435;-79
2023/09/23 00:06:23;;;;;;;7.43;3.60;;;;;;;11.45;100.00;99824.06;5030163;28;20772;-79
2023/09/23 00:08:56;;;;;;;6.85;3.25;;;;;;;11.47;100.00;99831.94;5045188;28;20417;-79
2023/09/23 00:11:29;;;;;;;6.82;4.00;;;;;;;11.39;100.00;99828.00;5036061;28;20415;-79
2023/09/23 00:13:58;;;;;;;6.85;3.70;;;;;;;11.43;100.00;99829.00;5028783;28;20438;-79
2023/09/23 00:16:31;;;;;;;7.53;3.63;;;;;;;11.44;100.00;99827.91;5028855;28;20419;-79
2023/09/23 00:19:04;;;;;;;7.93;3.80;;;;;;;11.40;100.00;99824.97;5028201;28;20457;-79
2023/09/23 00:21:39;;;;;;;5.78;3.50;;;;;;;11.43;100.00;99822.75;5029568;28;20423;-79
2023/09/23 00:24:13;;;;;;;6.65;3.63;;;;;;;11.38;100.00;99820.97;5028805;28;20419;-79
2023/09/23 00:26:42;;;;;;;7.40;4.00;;;;;;;11.42;100.00;99823.84;5029777;28;20494;-79
2023/09/23 00:29:17;;;;;;;6.70;3.67;;;;;;;11.37;100.00;99822.84;5044912;28;20447;-79
2023/09/23 00:31:50;;;;;;;7.35;3.65;;;;;;;11.38;100.00;99821.75;5029192;28;20418;-79
2023/09/23 00:34:23;;;;;;;7.15;3.78;;;;;;;11.34;100.00;99833.59;5030096;28;20415;-79
2023/09/23 00:36:58;;;;;;;7.23;3.80;;;;;;;11.40;100.00;99829.63;5044651;28;20506;-79
2023/09/23 00:39:42;;;;;;;7.23;3.80;;;;;;;11.39;100.00;99830.72;5026884;28;20434;-79
2023/09/23 00:42:12;;;;;;;7.77;3.80;;;;;;;11.45;100.00;99824.06;5028343;28;20442;-79
2023/09/23 00:44:45;;;;;;;9.33;3.97;;;;;;;11.43;100.00;99829.00;5026726;28;20453;-79
2023/09/23 00:47:19;;;;;;;6.13;3.90;;;;;;;11.46;100.00;99831.13;5029148;28;20450;-79
2023/09/23 00:49:52;;;;;;;7.65;4.00;;;;;;;11.51;100.00;99822.81;5026991;28;20425;-79
2023/09/23 00:52:22;;;;;;;9.13;4.00;;;;;;;11.54;100.00;99822.19;5039805;28;20407;-79
2023/09/23 00:54:57;;;;;;;7.57;3.97;;;;;;;11.59;100.00;99821.31;5044509;28;20493;-79
2023/09/23 00:57:30;;;;;;;6.43;3.80;;;;;;;11.55;100.00;99832.00;5042771;28;20430;-79
2023/09/23 01:00:11;;;;;;;7.70;4.05;;;;;;;11.53;100.00;99839.69;5027976;28;20906;-79
2023/09/23 01:02:46;;;;;;;7.87;4.47;;;;;;;11.62;100.00;99837.03;5043361;28;20525;-79
2023/09/23 01:05:18;;;;;;;8.43;4.07;;;;;;;11.62;100.00;99838.97;5027478;28;20433;-79
2023/09/23 01:07:48;;;;;;;7.97;4.38;;;;;;;11.67;100.00;99833.38;5029094;28;21112;-79
2023/09/23 01:10:21;;;;;;;8.65;4.00;;;;;;;11.60;100.00;99855.63;5027474;28;20445;-79
2023/09/23 01:12:56;;;;;;;8.40;4.10;;;;;;;11.62;100.00;99850.66;5028371;28;20411;-79
2023/09/23 01:15:31;;;;;;;9.60;4.15;;;;;;;11.55;100.00;99853.78;5027943;28;20445;-79
2023/09/23 01:18:13;;;;;;;7.75;3.88;;;;;;;11.54;100.00;99852.19;5027116;28;20959;-79
2023/09/23 01:20:43;;;;;;;8.97;4.03;;;;;;;11.61;100.00;99857.22;5028620;28;20433;-79
2023/09/23 01:23:17;;;;;;;7.30;3.90;;;;;;;11.61;100.00;99851.75;5027232;28;20446;-79
2023/09/23 01:25:51;;;;;;;7.53;4.40;;;;;;;11.65;100.00;99851.97;5027550;28;20795;-79
2023/09/23 01:28:24;;;;;;;8.85;4.30;;;;;;;11.48;100.00;99845.25;5026123;28;20435;-80
2023/09/23 01:30:52;;;;;;;8.65;4.15;;;;;;;11.58;100.00;99847.72;5027248;28;20423;-79
2023/09/23 01:33:29;;;;;;;6.90;4.10;;;;;;;11.62;100.00;99847.94;5033002;28;21037;-79
2023/09/23 01:36:02;;;;;;;7.40;4.00;;;;;;;11.58;100.00;99841.47;5027922;28;20423;-79
2023/09/23 01:38:37;;;;;;;7.88;4.00;;;;;;;11.51;100.00;99841.09;5025032;28;20783;-79
2023/09/23 01:41:10;;;;;;;8.27;4.25;;;;;;;11.45;100.00;99840.41;5027399;28;20427;-79
2023/09/23 01:43:43;;;;;;;8.75;4.53;;;;;;;11.50;100.00;99834.84;5026285;28;20429;-79
2023/09/23 01:46:16;;;;;;;8.20;4.30;;;;;;;11.51;100.00;99849.28;5028384;28;20426;-79
2023/09/23 01:48:50;;;;;;;7.55;4.00;;;;;;;11.52;100.00;99848.16;5027221;28;20434;-79
2023/09/23 01:51:23;;;;;;;7.35;4.47;;;;;;;11.56;100.00;99846.44;5027564;28;20422;-79
2023/09/23 01:53:58;;;;;;;9.80;4.20;;;;;;;11.48;100.00;99861.59;5028632;28;20411;-79
2023/09/23 01:56:34;;;;;;;8.07;4.10;;;;;;;11.48;100.00;99872.50;5028474;28;20430;-79
2023/09/23 01:59:07;;;;;;;9.90;4.50;;;;;;;11.52;100.00;99864.53;5026784;28;20414;-79
2023/09/23 02:01:41;;;;;;;7.13;4.43;;;;;;;11.57;100.00;99867.94;5024856;28;20438;-79
2023/09/23 02:04:09;;;;;;;9.18;4.65;;;;;;;11.57;100.00;99867.94;5031986;28;20415;-80
2023/09/23 02:06:44;;;;;;;9.30;4.23;;;;;;;11.46;100.00;99869.28;5028477;28;20435;-79
2023/09/23 02:09:18;;;;;;;7.93;4.35;;;;;;;11.53;100.00;99863.38;5028380;28;20422;-79
2023/09/23 02:11:53;;;;;;;9.52;4.28;;;;;;;11.46;100.00;99882.06;5025336;28;20435;-79
2023/09/23 02:14:21;;;;;;;8.90;4.30;;;;;;;11.53;100.00;99879.72;5024571;28;21119;-79
2023/09/23 02:16:55;;;;;;;9.18;4.72;;;;;;;11.51;100.00;99887.41;5026683;28;20415;-79
2023/09/23 02:19:28;;;;;;;7.63;4.30;;;;;;;11.55;100.00;99885.69;5026449;28;20407;-79
2023/09/23 02:22:05;;;;;;;8.32;4.40;;;;;;;11.54;100.00;99887.59;5026262;28;20462;-79
2023/09/23 02:24:40;;;;;;;7.65;4.25;;;;;;;11.51;100.00;99888.22;5026313;28;20788;-79
2023/09/23 02:27:14;;;;;;;8.93;4.10;;;;;;;11.55;100.00;99897.41;5024228;28;20415;-78
2023/09/23 02:29:47;;;;;;;6.47;4.00;;;;;;;11.52;100.00;99892.56;5027256;28;20434;-78
2023/09/23 02:32:20;;;;;;;9.75;4.35;;;;;;;11.42;100.00;99884.63;5027571;28;20426;-79
2023/09/23 02:34:53;;;;;;;7.78;4.63;;;;;;;11.46;100.00;99887.53;5043558;28;20426;-78
2023/09/23 02:37:26;;;;;;;8.98;4.45;;;;;;;11.48;100.00;99879.88;5025131;28;20435;-79
2023/09/23 02:39:56;;;;;;;9.02;4.55;;;;;;;11.46;100.00;99885.63;5037171;28;20415;-79
2023/09/23 02:42:24;;;;;;;9.68;4.70;;;;;;;11.49;100.00;99878.72;5027578;28;20418;-79
2023/09/23 02:44:57;;;;;;;8.10;4.43;;;;;;;11.51;100.00;99871.06;5025931;28;20439;-79
2023/09/23 02:47:31;;;;;;;9.10;4.63;;;;;;;11.42;100.00;99883.78;5026760;28;20418;-79
2023/09/23 02:50:09;;;;;;;8.02;4.25;;;;;;;11.41;100.00;99885.72;5026729;28;20418;-78
2023/09/23 02:52:44;;;;;;;8.53;4.20;;;;;;;11.45;100.00;99885.91;5026313;28;20512;-79
2023/09/23 02:55:19;;;;;;;7.70;4.50;;;;;;;11.53;100.00;99896.09;5026662;28;20422;-79
2023/09/23 02:57:55;;;;;;;9.70;4.43;;;;;;;11.40;100.00;99895.78;5025348;28;20422;-78
2023/09/23 03:00:30;;;;;;;10.57;4.03;;;;;;;11.37;100.00;99898.34;5025024;28;20426;-79
2023/09/23 03:03:02;;;;;;;7.03;3.80;;;;;;;11.35;100.00;99914.16;5027092;28;20441;-79
2023/09/23 03:05:31;;;;;;;8.25;3.95;;;;;;;11.34;100.00;99912.56;5033409;28;20426;-79
2023/09/23 03:08:07;;;;;;;7.05;4.20;;;;;;;11.39;100.00;99916.00;5025877;28;20431;-79
2023/09/23 03:10:40;;;;;;;7.10;4.00;;;;;;;11.35;100.00;99903.28;5027810;28;21144;-79
2023/09/23 03:13:13;;;;;;;7.97;4.10;;;;;;;11.26;100.00;99896.94;5025097;28;20426;-79
2023/09/23 03:15:51;;;;;;;8.45;4.65;;;;;;;11.34;100.00;99907.94;5025062;28;20403;-79
2023/09/23 03:18:27;;;;;;;9.15;4.75;;;;;;;11.32;100.00;99915.56;5027200;28;20894;-79
2023/09/23 03:21:07;;;;;;;9.90;5.38;;;;;;;11.41;100.00;99929.31;5034331;28;21085;-79
2023/09/23 03:23:37;;;;;;;8.68;5.00;;;;;;;11.36;100.00;99922.03;5024510;28;20427;-79
2023/09/23 03:26:14;;;;;;;9.70;5.30;;;;;;;11.38;100.00;99929.94;5032781;28;20891;-79
2023/09/23 03:28:47;;;;;;;9.60;4.70;;;;;;;11.37;100.00;99922.84;5026198;28;20411;-79
2023/09/23 03:31:20;;;;;;;8.48;4.70;;;;;;;11.26;100.00;99940.53;5026284;28;20453;-79
2023/09/23 03:33:55;;;;;;;7.87;4.00;;;;;;;11.28;100.00;99933.63;5025335;28;20423;-79
2023/09/23 03:36:31;;;;;;;9.60;3.83;;;;;;;11.23;100.00;99940.00;5041826;28;20407;-79
2023/09/23 03:39:00;;;;;;;7.55;4.25;;;;;;;11.26;100.00;99935.06;5027620;28;20423;-79
2023/09/23 03:41:30;;;;;;;8.50;4.20;;;;;;;11.25;100.00;99938.91;5046258;28;20422;-79
2023/09/23 03:43:58;;;;;;;7.90;4.27;;;;;;;11.28;100.00;99949.19;5030067;28;20456;-79
2023/09/23 03:46:31;;;;;;;7.63;4.50;;;;;;;11.27;100.00;99948.38;5028438;28;20497;-79
2023/09/23 03:49:05;;;;;;;7.70;4.20;;;;;;;11.35;100.00;99953.13;5027496;28;20434;-79
2023/09/23 03:51:39;;;;;;;7.63;4.67;;;;;;;11.31;100.00;99952.13;5027847;28;20795;-78
2023/09/23 03:54:13;;;;;;;9.03;4.40;;;;;;;11.31;100.00;99956.75;5030617;28;20459;-79
2023/09/23 03:56:43;;;;;;;8.63;4.43;;;;;;;11.34;100.00;99956.16;5029106;28;20431;-78
2023/09/23 03:59:16;;;;;;;9.10;5.07;;;;;;;11.29;100.00;99953.53;5027731;28;20442;-79
2023/09/23 04:01:45;;;;;;;8.35;4.70;;;;;;;11.32;100.00;99961.09;5034902;28;20470;-79
2023/09/23 04:04:18;;;;;;;8.85;4.60;;;;;;;11.27;100.00;99966.63;5030701;28;20419;-79
2023/09/23 04:06:52;;;;;;;8.55;4.63;;;;;;;11.26;100.00;99975.94;5029218;28;20434;-79
2023/09/23 04:09:25;;;;;;;7.70;4.68;;;;;;;11.32;100.00;99986.41;5029500;28;20422;-78
2023/09/23 04:12:00;;;;;;;9.57;5.13;;;;;;;11.33;100.00;99982.56;5026059;28;20954;-78
2023/09/23 04:14:34;;;;;;;10.43;4.95;;;;;;;11.29;100.00;99980.78;5029644;28;20423;-78
2023/09/23 04:17:07;;;;;;;9.20;4.97;;;;;;;11.25;100.00;99987.94;5028576;28;20951;-79
2023/09/23 04:19:35;;;;;;;8.82;5.00;;;;;;;11.29;100.00;99994.38;5029677;28;20422;-79
2023/09/23 04:22:09;;;;;;;9.13;5.13;;;;;;;11.33;100.00;99998.13;5029853;28;20459;-79
2023/09/23 04:24:42;;;;;;;12.40;6.65;;;;;;;11.35;100.00;100001.34;5030610;28;20423;-78
2023/09/23 04:27:17;;;;;;;10.10;6.30;;;;;;;11.35;100.00;100015.78;5028335;28;20431;-78
2023/09/23 04:29:54;;;;;;;9.93;6.63;;;;;;;11.38;100.00;100015.19;5027021;28;20426;-79
2023/09/23 04:32:22;;;;;;;11.20;6.57;;;;;;;11.38;100.00;100017.91;5029743;28;20430;-79
2023/09/23 04:34:55;;;;;;;10.63;6.40;;;;;;;11.45;100.00;100020.22;5028795;28;20411;-79
2023/09/23 04:37:29;;;;;;;9.90;5.82;;;;;;;11.38;100.00;100026.06;5027499;28;20470;-79
2023/09/23 04:39:57;;;;;;;11.00;6.10;;;;;;;11.40;100.00;100032.00;5028058;28;21037;-79
2023/09/23 04:42:31;;;;;;;10.32;5.68;;;;;;;11.41;100.00;100030.13;5029420;28;20435;-79
2023/09/23 04:45:06;;;;;;;11.43;6.38;;;;;;;11.37;100.00;100029.91;5042758;28;20429;-79
2023/09/23 04:47:40;;;;;;;10.63;6.32;;;;;;;11.39;100.00;100027.69;5027490;28;20431;-79
2023/09/23 04:50:12;;;;;;;13.35;7.22;;;;;;;11.35;100.00;100032.13;5028474;28;20422;-79
2023/09/23 04:52:46;;;;;;;13.20;7.83;;;;;;;11.41;100.00;100032.84;5028830;28;20418;-79
2023/09/23 04:55:21;;;;;;;14.45;8.38;;;;;;;11.43;100.00;100044.22;5027380;28;20911;-79
2023/09/23 04:57:56;;;;;;;14.93;8.40;;;;;;;11.39;100.00;100044.03;5027474;28;20481;-79
2023/09/23 05:00:32;;;;;;;12.70;8.23;;;;;;;11.38;100.00;100044.34;5027815;28;20450;-79
2023/09/23 05:03:00;;;;;;;14.60;8.68;;;;;;;11.41;100.00;100049.19;5029384;28;20426;-80
2023/09/23 05:05:34;;;;;;;16.92;9.60;;;;;;;11.39;100.00;100062.28;5027909;28;20438;-80
2023/09/23 05:08:10;;;;;;;15.18;9.88;;;;;;;11.54;100.00;100058.47;5027883;28;20951;-79
2023/09/23 05:10:44;;;;;;;16.27;10.37;;;;;;;11.47;100.00;100058.88;5025481;28;20517;-80
2023/09/23 05:13:17;;;;;;;18.30;10.95;;;;;;;11.40;100.00;100061.97;5027966;28;20431;-80
2023/09/23 05:15:50;;;;;;;20.77;12.07;;;;;;;11.33;100.00;100060.78;5028547;28;21207;-80
2023/09/23 05:18:23;;;;;;;19.50;12.07;;;;;;;11.44;100.00;100067.66;5026541;28;20933;-80
2023/09/23 05:20:57;;;;;;;19.60;13.00;;;;;;;11.47;100.00;100068.97;5027322;28;20415;-79
2023/09/23 05:23:30;;;;;;;21.77;12.55;;;;;;;11.44;100.00;100077.75;5044134;28;20442;-79
2023/09/23 05:25:58;;;;;;;22.53;13.17;;;;;;;11.44;100.00;100080.47;5043920;28;20497;-79
2023/09/23 05:28:28;;;;;;;21.35;12.73;;;;;;;11.42;100.00;100083.50;5028795;28;20419;-79
2023/09/23 05:31:01;;;;;;;22.67;13.27;;;;;;;11.51;100.00;100084.41;5028894;28;20886;-79
2023/09/23 05:33:29;;;;;;;19.85;12.43;;;;;;;11.50;100.00;100085.53;5028394;28;20415;-80
2023/09/23 05:36:03;;;;;;;21.95;13.13;;;;;;;11.43;100.00;100084.31;5029249;28;20418;-79
2023/09/23 05:38:36;;;;;;;20.30;12.55;;;;;;;11.51;100.00;100087.13;5027750;28;20427;-79
2023/09/23 05:41:10;;;;;;;21.17;12.70;;;;;;;11.55;100.00;100092.81;5026838;28;20438;-79
2023/09/23 05:43:45;;;;;;;20.58;13.40;;;;;;;11.55;100.00;100095.53;5027195;28;21090;-79
2023/09/23 05:46:13;;;;;;;23.85;13.70;;;;;;;11.54;100.00;100104.81;5027530;28;20438;-79
2023/09/23 05:48:48;;;;;;;23.05;14.20;;;;;;;11.57;100.00;100118.66;5040944;28;20443;-79
2023/09/23 05:51:21;;;;;;;22.02;14.00;;;;;;;11.62;100.00;100115.00;5028871;28;20415;-79
2023/09/23 05:53:55;;;;;;;24.60;15.03;;;;;;;11.56;100.00;100111.56;5028240;28;20434;-79
2023/09/23 05:56:28;;;;;;;25.65;15.90;;;;;;;11.63;100.00;100119.38;5041213;28;20862;-79
2023/09/23 05:59:03;;;;;;;27.67;17.20;;;;;;;11.65;100.00;100128.03;5027477;28;20427;-79
2023/09/23 06:01:31;;;;;;;27.48;16.27;;;;;;;11.62;100.00;100127.84;5024257;28;20442;-79
2023/09/23 06:04:05;;;;;;;27.83;16.90;;;;;;;11.67;100.00;100125.81;5023770;28;20855;-79
2023/09/23 06:06:39;;;;;;;28.17;17.75;;;;;;;11.71;100.00;100137.75;5028281;28;20434;-78
2023/09/23 06:09:12;;;;;;;28.35;17.20;;;;;;;11.82;100.00;100137.53;5028375;28;20434;-79
2023/09/23 06:11:45;;;;;;;28.13;17.63;;;;;;;11.82;100.00;100134.81;5026143;28;20427;-79
2023/09/23 06:14:20;;;;;;;32.20;18.33;;;;;;;11.97;100.00;100142.72;5027916;28;20911;-79
2023/09/23 06:16:53;;;;;;;32.33;19.17;;;;;;;11.89;100.00;100143.41;5026524;28;20423;-79
2023/09/23 06:19:26;;;;;;;33.03;19.67;;;;;;;11.90;100.00;100139.56;5028205;28;20426;-79
2023/09/23 06:22:00;;;;;;;32.03;18.95;;;;;;;11.89;100.00;100144.22;5027215;28;20419;-80
2023/09/23 06:24:28;;;;;;;32.28;18.98;;;;;;;11.90;100.00;100150.47;5025470;28;20430;-79
2023/09/23 06:27:02;;;;;;;31.02;18.77;;;;;;;11.98;100.00;100159.91;5027638;28;20430;-79
2023/09/23 06:29:37;;;;;;;32.58;19.17;;;;;;;12.01;100.00;100164.75;5041924;28;20451;-79
2023/09/23 06:32:10;;;;;;;31.17;18.58;;;;;;;12.02;100.00;100152.75;5025694;28;20771;-78
2023/09/23 06:34:38;;;;;;;30.17;18.15;;;;;;;12.05;100.00;100154.88;5026547;28;20423;-79
2023/09/23 06:37:11;;;;;;;32.60;17.95;;;;;;;11.91;100.00;100163.81;5027669;28;20891;-78
2023/09/23 06:39:44;;;;;;;32.53;18.02;;;;;;;11.87;100.00;100162.00;5025175;28;20518;-79
2023/09/23 06:42:13;;;;;;;27.13;17.17;;;;;;;11.99;100.00;100178.69;5026183;28;20438;-78
2023/09/23 06:44:43;;;;;;;28.65;18.02;;;;;;;12.00;100.00;100174.88;5021310;28;20433;-79
2023/09/23 06:47:11;;;;;;;30.50;18.20;;;;;;;12.05;100.00;100180.22;5026898;28;20445;-79
2023/09/23 06:49:44;;;;;;;27.30;17.67;;;;;;;12.04;100.00;100180.50;5027541;28;20426;-78
2023/09/23 06:52:18;;;;;;;31.50;17.85;;;;;;;12.17;100.00;100179.72;5025493;28;20430;-79
2023/09/23 06:54:51;;;;;;;27.23;16.60;;;;;;;12.17;100.00;100187.13;5042405;28;20959;-78
2023/09/23 06:57:24;;;;;;;25.75;16.50;;;;;;;12.25;100.00;100189.94;5025602;28;20423;-79
2023/09/23 06:59:59;;;;;;;26.38;17.00;;;;;;;12.27;100.00;100195.09;5024273;28;20430;-78
2023/09/23 07:02:32;;;;;;;24.30;15.30;;;;;;;12.32;100.00;100197.72;5025525;28;20434;-79
2023/09/23 07:05:06;;;;;;;27.13;16.02;;;;;;;12.23;100.00;100199.53;5025662;28;20442;-79
2023/09/23 07:07:39;;;;;;;28.77;15.17;;;;;;;12.35;100.00;100201.75;5025983;28;20502;-79
2023/09/23 07:10:13;;;;;;;27.08;15.50;;;;;;;12.29;100.00;100211.97;5042432;28;20449;-78
2023/09/23 07:12:46;;;;;;;23.23;14.93;;;;;;;12.39;100.00;100213.69;5029223;28;20426;-82
2023/09/23 07:15:20;;;;;;;23.60;15.80;;;;;;;12.28;100.00;100214.97;5031511;28;20426;-79
2023/09/23 07:17:54;;;;;;;26.83;16.65;;;;;;;12.25;100.00;100216.41;5031782;28;20414;-79
2023/09/23 07:20:27;;;;;;;27.30;16.00;;;;;;;12.41;100.00;100217.72;5029373;28;20930;-78
2023/09/23 07:22:56;;;;;;;24.60;15.55;;;;;;;12.34;100.00;100221.97;5029591;28;20438;-80
2023/09/23 07:25:24;;;;;;;25.48;16.30;;;;;;;12.28;100.00;100231.34;5029155;28;20441;-80
2023/09/23 07:27:52;;;;;;;26.63;16.57;;;;;;;12.36;100.00;100236.09;5031027;28;20418;-79
2023/09/23 07:30:27;;;;;;;27.55;16.60;;;;;;;12.44;100.00;100238.13;5028817;28;20431;-80
2023/09/23 07:33:00;;;;;;;27.93;17.30;;;;;;;12.38;100.00;100242.88;5028812;28;20423;-79
2023/09/23 07:35:34;;;;;;;26.58;17.23;;;;;;;12.49;100.00;100251.69;5029706;28;20415;-79
2023/09/23 07:38:03;;;;;;;29.77;17.10;;;;;;;12.70;100.00;100257.53;5028833;28;20567;-79
2023/09/23 07:40:40;;;;;;;26.67;16.67;;;;;;;12.76;100.00;100250.06;5030185;28;20425;-79
2023/09/23 07:43:13;;;;;;;26.58;16.05;;;;;;;12.78;100.00;100257.94;5030663;28;20429;-80
2023/09/23 07:45:43;;;;;;;26.02;16.60;;;;;;;12.70;100.00;100257.53;5043976;28;20442;-82
2023/09/23 07:48:16;;;;;;;28.40;16.02;;;;;;;12.85;100.00;100269.25;5043013;28;20926;-82
2023/09/23 07:50:49;;;;;;;25.35;15.13;;;;;;;12.90;100.00;100271.91;5032024;28;20422;-81
2023/09/23 07:53:22;;;;;;;23.25;15.10;;;;;;;12.98;100.00;100276.63;5030574;28;20438;-80
2023/09/23 07:55:56;;;;;;;23.33;13.98;;;;;;;12.73;100.00;100275.22;5044820;28;20426;-80
2023/09/23 07:58:29;;;;;;;22.17;14.25;;;;;;;12.84;100.00;100284.84;5030059;28;20419;-80
2023/09/23 08:01:04;;;;;;;24.43;14.47;;;;;;;12.93;100.00;100298.59;5025988;28;20423;-79
2023/09/23 08:03:37;;;;;;;19.48;12.85;;;;;;;12.91;100.00;100298.06;5029814;28;20422;-81
2023/09/23 08:06:10;;;;;;;17.27;11.55;;;;;;;12.81;100.00;100309.22;5030152;28;20902;-81
2023/09/23 08:08:40;;;;;;;15.55;8.80;;;;;;;12.76;100.00;100318.34;5027842;28;20430;-81
2023/09/23 08:11:13;;;;;;;12.93;8.10;;;;;;;12.89;100.00;100319.44;5029366;28;20427;-82
2023/09/23 08:13:41;;;;;;;13.23;8.10;;;;;;;12.65;100.00;100331.38;5031467;28;20407;-83
2023/09/23 08:16:11;;;;;;;12.98;7.70;;;;;;;12.61;100.00;100334.97;5046001;28;20430;-83
2023/09/23 08:18:39;;;;;;;11.63;7.80;;;;;;;12.69;100.00;100337.84;5029834;28;20419;-83
2023/09/23 08:21:14;;;;;;;14.10;7.50;;;;;;;12.78;100.00;100337.94;5030633;28;20415;-82
2023/09/23 08:23:47;;;;;;;11.85;6.97;;;;;;;12.84;100.00;100352.28;5029390;28;20795;-82
2023/09/23 08:26:20;;;;;;;12.05;6.78;;;;;;;13.01;100.00;100346.22;5038846;28;20438;-83
2023/09/23 08:28:54;;;;;;;11.10;6.70;;;;;;;12.91;100.00;100348.06;5030817;28;20430;-82
2023/09/23 08:31:28;;;;;;;10.93;6.43;;;;;;;12.93;100.00;100345.81;5031109;28;20453;-82
2023/09/23 08:34:04;;;;;;;10.85;6.80;;;;;;;12.91;100.00;100356.25;5031474;28;20422;-83
2023/09/23 08:36:37;;;;;;;9.83;6.33;;;;;;;13.23;100.00;100362.72;5045711;28;20415;-83
2023/09/23 08:39:10;;;;;;;10.00;6.40;;;;;;;13.31;100.00;100366.63;5029786;28;20438;-82
2023/09/23 08:41:52;;;;;;;9.63;5.88;;;;;;;13.54;100.00;100362.06;5029845;28;20419;-82
2023/09/23 08:44:25;;;;;;;8.95;5.20;;;;;;;13.41;100.00;100376.59;5029584;28;20426;-83
2023/09/23 08:47:00;;;;;;;8.85;4.78;;;;;;;13.42;100.00;100375.44;5025702;28;20439;-83
2023/09/23 08:49:30;;;;;;;6.55;4.20;;;;;;;13.39;100.00;100379.59;5027506;28;20920;-83
2023/09/23 08:51:58;;;;;;;8.95;4.20;;;;;;;13.45;100.00;100385.78;5029305;28;20419;-83
2023/09/23 08:54:28;;;;;;;6.00;3.47;;;;;;;13.64;100.00;100385.63;5030919;28;20894;-83
2023/09/23 08:57:01;;;;;;;6.07;3.10;;;;;;;13.47;100.00;100390.94;5030695;28;20764;-83
2023/09/23 08:59:35;;;;;;;5.47;2.97;;;;;;;13.44;100.00;100393.16;5044839;28;20419;-82
2023/09/23 09:02:10;;;;;;;4.63;2.80;;;;;;;13.52;100.00;100397.13;5027114;28;20435;-82
2023/09/23 09:04:43;;;;;;;6.40;2.80;;;;;;;13.77;100.00;100394.94;5027984;28;20927;-83
2023/09/23 09:07:17;;;;;;;4.88;2.75;;;;;;;13.64;100.00;100393.84;5028063;28;20977;-82
2023/09/23 09:09:50;;;;;;;5.53;2.85;;;;;;;13.70;100.00;100400.81;5027423;28;20435;-82
2023/09/23 09:12:18;;;;;;;5.90;2.72;;;;;;;13.72;100.00;100398.56;5029972;28;20434;-84
2023/09/23 09:14:51;;;;;;;5.93;2.60;;;;;;;13.95;100.00;100401.34;5028588;28;20430;-82
2023/09/23 09:17:21;;;;;;;5.00;2.50;;;;;;;14.10;100.00;100413.88;5029134;28;20445;-83
2023/09/23 09:19:50;;;;;;;4.65;2.20;;;;;;;14.01;100.00;100422.00;5042202;28;20921;-83
2023/09/23 09:22:20;;;;;;;6.43;2.45;;;;;;;14.10;100.00;100420.16;5028478;28;20433;-82
2023/09/23 09:24:53;;;;;;;4.30;2.10;;;;;;;13.95;100.00;100418.56;5025315;28;20430;-82
2023/09/23 09:27:27;;;;;;;5.93;2.15;;;;;;;14.04;100.00;100420.56;5029681;28;20438;-82
2023/09/23 09:30:00;;;;;;;4.40;2.20;;;;;;;14.06;100.00;100429.28;5028449;28;20423;-83
2023/09/23 09:32:36;;;;;;;4.90;2.13;;;;;;;14.07;100.00;100439.09;5028650;28;20883;-82
2023/09/23 09:35:11;;;;;;;4.50;2.50;;;;;;;14.04;100.00;100440.53;5041940;28;20426;-82
2023/09/23 09:37:46;;;;;;;7.13;2.43;;;;;;;14.16;100.00;100444.66;5026044;28;21002;-84
2023/09/23 09:40:21;;;;;;;5.00;2.80;;;;;;;13.98;100.00;100443.72;5027157;28;21104;-82
2023/09/23 09:42:57;;;;;;;5.53;2.58;;;;;;;14.16;100.00;100453.66;5029378;28;20411;-83
2023/09/23 09:45:34;;;;;;;6.57;2.70;;;;;;;14.10;100.00;100452.97;5028677;28;20764;-82
2023/09/23 09:48:11;;;;;;;5.78;2.53;;;;;;;14.15;100.00;100445.78;5025486;28;20915;-82
2023/09/23 09:50:45;;;;;;;5.63;2.47;;;;;;;14.31;100.00;100452.50;5027504;28;20434;-82
2023/09/23 09:53:20;;;;;;;6.40;3.00;;;;;;;14.31;100.00;100457.16;5033479;28;20446;-82
2023/09/23 09:55:49;;;;;;;6.78;3.30;;;;;;;14.52;100.00;100460.22;5027229;28;20435;-82
2023/09/23 09:58:23;;;;;;;5.93;3.20;;;;;;;14.65;100.00;100456.63;5026637;28;20427;-81
2023/09/23 10:00:57;;;;;;;6.13;3.40;;;;;;;14.71;100.00;100460.06;5025331;28;20431;-83
2023/09/23 10:03:32;;;;;;;7.90;3.60;;;;;;;14.84;100.00;100458.34;5043118;28;20427;-83
2023/09/23 10:06:01;;;;;;;7.63;3.53;;;;;;;14.73;100.00;100463.28;5028690;28;20433;-82
2023/09/23 10:08:36;;;;;;;8.07;3.97;;;;;;;14.53;100.00;100459.91;5029127;28;20438;-82
2023/09/23 10:11:09;;;;;;;7.93;4.10;;;;;;;14.36;100.00;100463.34;5027535;28;20419;-83
2023/09/23 10:13:37;;;;;;;10.43;4.00;;;;;;;14.39;100.00;100459.16;5027457;28;20442;-81
2023/09/23 10:16:13;;;;;;;7.47;4.00;;;;;;;14.26;100.00;100466.31;5025461;28;20430;-83
2023/09/23 10:18:43;;;;;;;8.02;4.10;;;;;;;14.23;100.00;100475.94;5040280;28;20432;-83
2023/09/23 10:21:23;;;;;;;7.22;4.25;;;;;;;14.38;100.00;100480.25;5040491;28;20442;-81
2023/09/23 10:24:00;;;;;;;6.70;4.38;;;;;;;14.41;100.00;100478.81;5026431;28;20435;-82
2023/09/23 10:26:33;;;;;;;7.28;4.10;;;;;;;14.53;100.00;100491.94;5027626;28;20423;-82
2023/09/23 10:29:03;;;;;;;6.70;4.20;;;;;;;14.48;100.00;100478.41;5026838;28;20423;-82
2023/09/23 10:31:32;;;;;;;7.87;4.20;;;;;;;14.48;100.00;100497.56;5027110;28;20423;-82
2023/09/23 10:34:10;;;;;;;6.80;3.90;;;;;;;14.19;100.00;100490.56;5025033;28;20442;-82
2023/09/23 10:36:38;;;;;;;8.05;4.25;;;;;;;14.34;100.00;100495.69;5028985;28;20402;-83
2023/09/23 10:39:17;;;;;;;6.53;3.97;;;;;;;14.12;100.00;100507.41;5027703;28;20427;-83
2023/09/23 10:41:50;;;;;;;7.25;4.03;;;;;;;14.02;100.00;100502.16;5023600;28;20441;-82
2023/09/23 10:44:24;;;;;;;6.82;3.97;;;;;;;14.19;100.00;100510.53;5026483;28;20423;-82
2023/09/23 10:46:54;;;;;;;9.32;3.92;;;;;;;14.18;100.00;100510.81;5027510;28;20426;-83
2023/09/23 10:49:23;;;;;;;6.13;3.50;;;;;;;14.15;100.00;100504.03;5031381;28;20422;-82
2023/09/23 10:51:57;;;;;;;6.88;3.55;;;;;;;14.25;100.00;100513.94;5031490;28;20426;-82
2023/09/23 10:54:25;;;;;;;6.25;3.70;;;;;;;14.33;100.00;100512.41;5040883;28;20426;-82
2023/09/23 10:56:53;;;;;;;5.93;3.10;;;;;;;14.43;100.00;100521.19;5030839;28;20434;-82
2023/09/23 10:59:21;;;;;;;6.53;3.42;;;;;;;14.41;100.00;100517.94;5029410;28;20423;-82
2023/09/23 11:01:56;;;;;;;6.05;3.50;;;;;;;14.61;100.00;100518.56;5031169;28;20439;-82
2023/09/23 11:04:30;;;;;;;4.82;2.92;;;;;;;14.70;100.00;100519.50;5031246;28;20429;-82
2023/09/23 11:07:04;;;;;;;7.57;3.00;;;;;;;14.72;100.00;100525.47;5029871;28;20431;-83
2023/09/23 11:09:38;;;;;;;6.47;3.05;;;;;;;14.55;100.00;100531.59;5032753;28;20427;-84
2023/09/23 11:12:12;;;;;;;5.57;3.00;;;;;;;14.57;100.00;100540.31;5030549;28;20437;-83
2023/09/23 11:14:46;;;;;;;6.53;2.90;;;;;;;14.44;100.00;100539.25;5029996;28;20427;-82
2023/09/23 11:17:20;;;;;;;6.78;2.72;;;;;;;14.56;100.00;100546.91;5030332;28;20787;-82
2023/09/23 11:19:56;;;;;;;5.47;2.80;;;;;;;14.68;100.00;100551.88;5031018;28;20411;-82
2023/09/23 11:22:30;;;;;;;4.97;2.63;;;;;;;14.87;100.00;100550.88;5036468;28;20427;-83
2023/09/23 11:25:09;;;;;;;5.82;3.10;;;;;;;15.00;100.00;100557.38;5030573;28;20814;-83
2023/09/23 11:27:38;;;;;;;5.78;2.40;;;;;;;15.23;100.00;100561.75;5031532;28;20418;-82
2023/09/23 11:30:12;;;;;;;6.32;2.88;;;;;;;15.39;100.00;100567.63;5028561;28;20441;-82
2023/09/23 11:32:50;;;;;;;5.28;2.80;;;;;;;15.48;100.00;100562.19;5030890;28;20763;-82
2023/09/23 11:35:25;;;;;;;5.25;2.75;;;;;;;15.55;100.00;100568.03;5030770;28;20427;-82
2023/09/23 11:37:58;;;;;;;5.90;2.85;;;;;;;15.59;100.00;100573.66;5028798;28;20514;-83
2023/09/23 11:40:26;;;;;;;4.70;2.72;;;;;;;15.26;100.00;100574.81;5028944;28;20438;-81